Date,TemperatureHighF,TemperatureAvgF,TemperatureLowF,DewpointHighF,DewpointAvgF,DewpointLowF,HumidityHigh,HumidityAvg,HumidityLow,PressureMaxIn,PressureMinIn,WindSpeedMaxMPH,WindSpeedAvgMPH,GustSpeedMaxMPH,PrecipitationSumIn
2014-1-1,55.1,40.2,25.8,21.0,17.4,14.0,66,42,22,30.35,30.15,17,4,25,0.00
2014-1-2,52.6,35.6,20.6,22.0,15.4,11.0,84,49,20,30.45,30.29,7,2,13,0.00
2014-1-3,52.6,35.7,20.2,20.0,14.4,10.0,67,44,22,30.31,29.99,9,3,13,0.00
2014-1-4,61.1,40.9,27.4,21.0,15.0,0.0,61,38,16,30.08,29.69,24,6,31,0.00
2014-1-5,38.5,28.1,20.1,5.0,0.1,-6.0,50,32,16,30.48,30.08,17,5,24,0.00
2014-1-6,46.1,29.0,15.4,1.0,-1.0,-5.0,50,30,13,30.64,30.46,12,2,17,0.00
2014-1-7,43.3,29.2,15.8,6.0,3.1,0.0,59,35,18,30.48,30.21,7,2,10,0.00
2014-1-8,51.7,33.1,17.9,13.0,8.4,3.0,60,38,20,30.28,30.13,8,1,10,0.00
2014-1-9,51.5,32.4,18.9,16.0,12.9,10.0,69,47,24,30.22,30.01,7,2,10,0.00
2014-1-10,53.2,41.4,28.8,20.0,15.5,12.0,54,36,21,30.16,29.82,32,6,41,0.00
2014-1-11,56.7,42.5,32.7,22.0,19.0,14.0,55,40,26,30.27,30.01,10,3,12,0.00
2014-1-12,57.3,41.7,32.2,21.0,14.3,1.0,54,35,16,30.20,29.83,25,7,37,0.00
2014-1-13,50.1,37.6,26.3,15.0,10.3,5.0,45,33,21,30.42,30.21,13,4,22,0.00
2014-1-14,55.0,41.4,31.1,17.0,14.0,12.0,52,34,18,30.45,30.30,14,4,24,0.00
2014-1-15,56.9,39.5,22.5,18.0,14.4,11.0,65,39,20,30.48,30.24,17,3,21,0.00
2014-1-16,59.3,41.8,25.4,16.0,11.6,7.0,58,31,14,30.32,30.15,10,2,17,0.00
2014-1-17,55.2,38.3,24.0,17.0,12.2,7.0,62,37,18,30.38,30.19,8,2,15,0.00
2014-1-18,59.7,39.3,23.2,16.0,11.4,9.0,57,35,15,30.37,30.24,6,1,8,0.00
2014-1-19,58.4,39.2,22.6,15.0,11.9,9.0,57,36,17,30.42,30.18,8,2,11,0.00
2014-1-20,61.6,43.6,29.6,20.0,12.8,9.0,46,30,15,30.46,30.20,9,2,11,0.00
2014-1-21,57.9,39.4,23.9,15.0,11.7,7.0,55,34,17,30.53,30.27,7,2,10,0.00
2014-1-22,45.2,33.1,23.3,12.0,8.4,4.0,44,36,25,30.29,30.02,6,1,7,0.00
2014-1-23,41.9,28.8,18.9,19.0,12.9,8.0,68,52,37,30.70,30.10,10,2,14,0.00
2014-1-24,43.5,27.6,11.0,17.0,12.4,6.0,82,56,33,30.77,30.57,7,1,10,0.00
2014-1-25,54.3,36.8,21.1,15.0,10.3,0.0,65,38,17,30.57,30.18,7,2,11,0.00
2014-1-26,60.3,43.8,25.7,16.0,7.4,-3.0,38,24,10,30.18,29.91,13,3,20,0.00
2014-1-27,52.7,38.5,28.6,21.0,16.6,11.0,61,42,26,30.11,29.90,6,2,9,0.00
2014-1-28,51.7,34.9,18.0,15.0,4.7,-6.0,54,32,12,30.27,29.99,14,4,17,0.00
2014-1-29,57.2,39.4,21.2,8.0,4.5,2.0,44,25,12,30.28,29.96,9,3,12,0.00
2014-1-30,68.3,50.6,33.1,29.0,18.6,4.0,41,29,19,29.98,29.66,30,7,30,0.00
2014-1-31,59.9,50.0,36.0,29.0,26.7,21.0,71,42,28,29.67,29.49,34,7,37,0.00